The Farmers Guide 72-hour weather forecast

Enter Postcode:

Sunny Spells

(09:00)

6.3°C

IP2 0SS

Wind Soil
Date Time Weather Temp Rain Humid Cloud Press (mph) Temp Moist
02/04 09:00 6.3°C 0.0mm 68% 69% 1020mb 14nnw (344 degrees) 6.4°C 0.3%
12:00 9.0°C 0.0mm 53% 67% 1022mb 10nnw (340 degrees) 7.3°C 0.3%
15:00 10.0°C 0.0mm 48% 59% 1023mb 5nw (323 degrees) 8.3°C 0.3%
18:00 6.2°C 0.0mm 73% 59% 1024mb 1sww (247 degrees) 8.4°C 0.3%
21:00 5.1°C 0.0mm 69% 53% 1024mb 6s (174 degrees) 7.2°C 0.3%
03/04 00:00 6.3°C 0.0mm 68% 66% 1023mb 8ssw (205 degrees) 6.8°C 0.3%
03:00 5.7°C 0.3mm 83% 99% 1021mb 12ssw (192 degrees) 6.6°C 0.3%
06:00 5.8°C 1.3mm 92% 99% 1017mb 14s (186 degrees) 6.4°C 0.3%
09:00 7.8°C 2.4mm 97% 100% 1014mb 13s (191 degrees) 6.4°C 0.3%
12:00 10.7°C 5.1mm 94% 100% 1012mb 12sw (224 degrees) 7.0°C 0.3%
15:00 10.7°C 1.3mm 88% 100% 1011mb 14nww (301 degrees) 7.6°C 0.3%
18:00 9.4°C 1.4mm 92% 97% 1011mb 11nww (296 degrees) 8.0°C 0.3%
21:00 8.9°C 0.0mm 97% 95% 1013mb 7nnw (341 degrees) 8.0°C 0.3%
04/04 00:00 8.7°C 0.2mm 96% 97% 1015mb 11nne (27 degrees) 8.0°C 0.3%
03:00 7.2°C 0.0mm 93% 94% 1017mb 14nne (26 degrees) 7.9°C 0.3%
06:00 6.4°C 0.0mm 88% 96% 1019mb 14ne (39 degrees) 7.5°C 0.3%
09:00 7.5°C 0.0mm 77% 84% 1022mb 13ne (43 degrees) 7.4°C 0.3%
12:00 10.1°C 0.0mm 61% 82% 1024mb 12ne (47 degrees) 8.1°C 0.3%
15:00 10.3°C 0.0mm 57% 59% 1024mb 10ne (43 degrees) 8.8°C 0.3%
18:00 7.6°C 0.0mm 71% 58% 1025mb 7ne (50 degrees) 8.8°C 0.3%
21:00 3.9°C 0.0mm 84% 21% 1026mb 4ne (39 degrees) 7.8°C 0.3%
05/04 00:00 2.6°C 0.0mm 87% 15% 1025mb 3w (260 degrees) 6.6°C 0.3%
03:00 5.9°C 0.0mm 78% 47% 1024mb 9w (269 degrees) 6.1°C 0.3%
06:00 5.1°C 0.0mm 96% 24% 1024mb 10nw (324 degrees) 5.8°C 0.3%
The Farmers Guide weather forecast is a free service for users of this website.
 
We now carry forecasts based on postcodes. Just enter your postcode and the weather page will display the forecast for the following 72 hours, broken down into three-hour intervals.
 
The forecast data provided for each three-hour period includes: a general graphic showing the likely weather conditions; average temperatures for the period; cloud cover; barometric pressure; wind speed and direction; humidity; and rainfall.
 
An indication of the likely soil temperature and soil moisture will also be displayed for most postcodes, although this data is not available for every area.
 
We hope you will find this service useful and would welcome any feedback from you.
 
 

Search

Read our full April issue here FREE!

Advertisments